Etusivu
METAR-TAF:

METAR-TAF

Lentoasemat :

Mosjøen, Norja

Leveyspiiri: 65-48N, Pituuspiiri: 013-08E, korkeus merenpinnasta: 70 m

Tämänhetkinen sää

Tämä raportti tehtiin 4 tuntia ja 23 minuuttia sitten, kello 19.50 UTC
Tuuli 2 kn eri suunnista
Lämpötila 10°C
Kosteus 76%
Ilmanpaine 1013 hPa
Näkyvyys 10 km tai enemmän
Muutamia pilviä 5000 ft:n korkeudessa

METAR: ENMS 281950Z VRB02KT 9999 FEW050 10/06 Q1013 RMK WIND 412FT VRB02KT

Aika: 02:13 (00:13 UTC)


TAF: puuttuu

Säähavainnot ja -ennusteet yli 4000 lentoasemalta (METAR- ja TAF-raportit).

Käytössä olevat sääasemat on merkitty karttaan keltaisilla ja punaisilla pisteillä.

Aseta hiiri pisteen päälle nähdäksesi sääaseman nimen.

Klikkaa sitten nähdäksesi säähavainnot ja -ennusteet.

Kartan vaihtaminen: klikkaa mustalla rastilla varustettuja vihreitä pisteitä, niin voit zoomata sisään; viivalla varustettua vihreää pistettä, niin voit zoomata ulos tai vihreitä nuolia, niin pääset viereisille kartoille.


METAR-TAF: